Seneca, Illinois
Current Conditions -  °F | °C
As of 5:15 PM on Saturday 25 Oct 2014 (Local Time) from KC09 Reporting Station
Clear Clear  
Wind Chill: 69°   Ceiling: Unl
Heat Index: 69°   Visibility: 10mi
Dew Point: 35°   Wind: 13mph
Humidity: 28%   Direction: 300°WNW
Pressure: 29.93"   Gusts: NA
Location:  41.31°N, 88.61°W
Report Text: KC09 252215Z AUTO 30011KT 10SM CLR 21/02 A2993 RMK AO2 T02070017
Loading
Personal Weather Stations






























Interactive Weather Map
Tropical Storm Tracking
New forecast layout! Learn more

10-Day Weather Forecast

Advertisements
Track Severe Weather on mobile